Flaxville, MT

12:01 AM MST on February 13, 2016 (GMT -0700)
South Orville, MT | | Change Station
CLOSE
Current Station
Personal Weather Station
Location: Flaxville, MT
Elevation: 2720 ft
Nearby Weather Stations

Elev 2720 ft 48.70 °N, 105.21 °W | Updated 33 seconds ago

Overcast
Overcast
11.5 °F
Feels Like -5 °F
N
15.4
Wind Variable Wind from East
Gusts 17.4 mph

Today
High -- | Low -- °F
--% Chance of Precip.
Yesterday
High -- | Low -- °F
Precip. -- in
Pressure 30.29 in
Visibility -9999.0 miles
Clouds Mostly Cloudy 2300 ft
Overcast 3000 ft
Windchill -5 °F
Dew Point 4 °F
Humidity 72%
Rainfall 0.00 in
Snow Depth Not available.
7:12 AM 5:17 PM
Waxing Crescent, 28% visible
METAR KOLF 130653Z AUTO 08010KT -SN BKN023 OVC030 M07/M10 A3017 RMK AO2 SNB24 SLP256 P0001 T10721100 410391117
Pressure 30.29 in
Visibility -9999.0 miles
Clouds Mostly Cloudy 2300 ft
Overcast 3000 ft
Windchill -5 °F
Dew Point 4 °F
Humidity 72%
Rainfall 0.00 in
Snow Depth Not available.
7:12 AM 5:17 PM
Waxing Crescent, 28% visible
METAR KOLF 130653Z AUTO 08010KT -SN BKN023 OVC030 M07/M10 A3017 RMK AO2 SNB24 SLP256 P0001 T10721100 410391117

10-Day Weather Forecast

Almanac

Astronomy

Feb. 13, 2016 Rise Set
Actual Time
Civil Twilight
Nautical Twilight
Astronomical Twilight
Moon
Length of Visible Light
Length of Day
Tomorrow will be .
, % of the Moon is Illuminated

Today's Extremes

State Highs State Lows

Community

WunderPhotos

Upload Photos

1,892,519 photos uploaded!

WunderBlog® & News

Nearby

Air Quality

  Air Quality AQ Index Pollutant
Not available.

Snow Depth

Station Depth Elevation

Earthquake Activity

City Distance Mag. Time & Date
Minimum magnitude displayed is 2.5.

Coastal Water Temperatures

Place Temperature

Stations

Nearby Weather Stations

Station Location Temp. Windchill Dew Point Humidity Wind Precip. Elev Updated Type
                   

Watches & Warnings

There are currently no watches in effect.